Time;durP1;ratioP1;P1;durP2;ratioP2;P2;SDS_P1;SDS_P2;PMS_P1;PMS_P2;Temp;Humidity;BMP_temperature;BMP_pressure;BME280_temperature;BME280_humidity;BME280_pressure;Samples;Min_cycle;Max_cycle;Signal;HPM_P1;HPM_P2
2023/03/22 00:01:15;;;;;;;27.40;13.20;;;;;;;13.87;58.72;100449.63;108113;1288;22464;-67
2023/03/22 00:03:41;;;;;;;23.10;13.20;;;;;;;13.90;58.96;100446.55;107947;1288;182486;-69
2023/03/22 00:06:08;;;;;;;19.80;12.10;;;;;;;13.90;58.99;100446.55;107980;1287;21990;-67
2023/03/22 00:08:49;;;;;;;16.10;10.00;;;;;;;13.84;58.95;100449.86;108129;1287;22023;-67
2023/03/22 00:11:18;;;;;;;19.50;11.80;;;;;;;13.77;58.96;100452.85;108171;1287;22026;-69
2023/03/22 00:13:45;;;;;;;18.40;11.00;;;;;;;13.76;59.21;100453.95;108167;1287;21988;-66
2023/03/22 00:16:12;;;;;;;18.90;10.80;;;;;;;13.77;59.35;100453.23;108134;1287;21993;-66
2023/03/22 00:18:38;;;;;;;17.90;10.60;;;;;;;13.80;59.33;100455.44;108144;1287;22007;-69
2023/03/22 00:21:12;;;;;;;19.30;11.50;;;;;;;13.86;59.35;100453.55;108082;1287;21994;-67
2023/03/22 00:23:37;;;;;;;17.60;11.10;;;;;;;13.88;59.39;100450.12;108148;1287;21991;-66
2023/03/22 00:26:03;;;;;;;19.40;13.10;;;;;;;13.93;59.22;100448.77;108064;1287;21995;-67
2023/03/22 00:28:30;;;;;;;20.80;12.60;;;;;;;13.97;59.29;100450.59;108107;1287;21999;-69
2023/03/22 00:31:01;;;;;;;18.90;11.80;;;;;;;14.00;59.25;100452.13;108082;1287;22462;-70
2023/03/22 00:33:28;;;;;;;20.60;11.40;;;;;;;13.98;59.21;100453.95;108201;1287;22341;-66
2023/03/22 00:35:57;;;;;;;20.90;10.90;;;;;;;13.96;59.08;100451.17;108119;1287;23076;-69
2023/03/22 00:38:23;;;;;;;19.50;10.90;;;;;;;13.97;59.10;100450.08;108176;1275;22002;-69
2023/03/22 00:40:49;;;;;;;20.60;10.50;;;;;;;13.94;59.19;100453.85;108095;1287;22021;-68
2023/03/22 00:43:16;;;;;;;17.40;10.90;;;;;;;13.96;59.06;100455.20;108131;1287;21983;-66
2023/03/22 00:45:43;;;;;;;20.30;10.70;;;;;;;14.00;58.98;100456.53;108135;1287;22023;-67
2023/03/22 00:48:09;;;;;;;20.10;11.40;;;;;;;14.03;58.90;100454.88;108134;1287;21995;-66
2023/03/22 00:50:36;;;;;;;21.70;12.50;;;;;;;14.05;58.89;100455.70;108138;1287;21994;-69
2023/03/22 00:53:02;;;;;;;24.40;13.30;;;;;;;14.05;58.75;100457.29;108214;1287;21992;-67
2023/03/22 00:55:33;;;;;;;;;;;;;;;14.05;58.71;100452.17;108117;1287;21973;-67
2023/03/22 00:57:59;;;;;;;16.70;10.40;;;;;;;14.03;58.64;100449.59;108171;1287;22008;-69
2023/03/22 01:00:24;;;;;;;14.30;10.20;;;;;;;13.97;58.53;100449.71;108107;1287;22031;-68
2023/03/22 01:02:52;;;;;;;19.50;11.30;;;;;;;13.93;58.58;100448.94;108134;1287;21988;-69
2023/03/22 01:05:20;;;;;;;24.10;11.70;;;;;;;13.89;58.58;100448.53;108105;1287;22035;-67
2023/03/22 01:07:49;;;;;;;19.00;11.30;;;;;;;13.85;58.62;100446.84;108144;1287;21980;-67
2023/03/22 01:10:15;;;;;;;18.80;10.90;;;;;;;13.81;58.64;100446.95;108141;1287;21993;-69
2023/03/22 01:12:42;;;;;;;17.50;12.20;;;;;;;13.78;58.77;100447.73;108075;1287;21988;-69
2023/03/22 01:15:08;;;;;;;17.60;12.20;;;;;;;13.72;58.99;100451.22;108082;1287;21985;-66
2023/03/22 01:17:35;;;;;;;22.50;13.20;;;;;;;13.63;59.02;100450.71;108089;1283;21981;-66
2023/03/22 01:20:01;;;;;;;20.80;12.90;;;;;;;13.54;59.48;100447.77;108106;1287;21998;-69
2023/03/22 01:22:26;;;;;;;19.80;11.90;;;;;;;13.44;59.36;100449.05;108086;1287;24384;-68
2023/03/22 01:24:54;;;;;;;21.00;12.20;;;;;;;13.39;59.56;100450.39;108073;1287;21970;-66
2023/03/22 01:27:20;;;;;;;21.30;12.70;;;;;;;13.37;59.55;100451.48;108190;1287;22021;-66
2023/03/22 01:29:46;;;;;;;23.70;11.90;;;;;;;13.36;59.68;100452.90;107989;1287;21991;-70
2023/03/22 01:32:11;;;;;;;20.90;12.00;;;;;;;13.36;59.67;100451.13;108148;1287;22008;-67
2023/03/22 01:34:37;;;;;;;18.50;11.80;;;;;;;13.37;59.69;100447.41;107367;1287;1002263;-66
2023/03/22 01:37:03;;;;;;;21.90;12.50;;;;;;;13.37;59.67;100446.70;108024;1274;21989;-67
2023/03/22 01:39:28;;;;;;;15.90;11.10;;;;;;;13.36;59.60;100448.49;108103;1287;23029;-67
2023/03/22 01:41:54;;;;;;;18.10;12.20;;;;;;;13.36;59.44;100448.48;107372;1287;1002652;-66
2023/03/22 01:44:21;;;;;;;22.30;12.50;;;;;;;13.40;59.47;100449.84;108099;1287;21995;-67
2023/03/22 01:46:49;;;;;;;22.10;13.50;;;;;;;13.42;59.43;100449.65;108222;1287;21984;-69
2023/03/22 01:49:18;;;;;;;18.30;12.10;;;;;;;13.41;59.25;100444.71;108063;1287;22002;-66
2023/03/22 01:51:47;;;;;;;20.20;12.90;;;;;;;13.41;59.15;100441.88;108098;1287;23653;-68
2023/03/22 01:54:20;;;;;;;20.90;12.90;;;;;;;13.39;58.94;100444.37;108097;1287;22105;-67
2023/03/22 01:56:46;;;;;;;18.40;12.30;;;;;;;13.35;58.97;100448.87;108236;1275;22026;-69
2023/03/22 01:59:12;;;;;;;19.90;12.10;;;;;;;13.29;58.91;100450.77;108146;1287;22023;-69
2023/03/22 02:01:39;;;;;;;21.80;12.80;;;;;;;13.27;59.06;100450.28;108097;1287;21983;-69
2023/03/22 02:04:24;;;;;;;19.50;12.10;;;;;;;13.26;59.13;100446.09;108046;1287;22101;-69
2023/03/22 02:06:52;;;;;;;19.50;12.20;;;;;;;13.20;58.92;100446.39;108089;1287;21975;-67
2023/03/22 02:09:20;;;;;;;20.10;13.00;;;;;;;13.16;59.11;100442.61;108077;1287;21986;-69
2023/03/22 02:11:56;;;;;;;28.20;13.80;;;;;;;13.15;59.26;100444.39;108050;1287;21990;-66
2023/03/22 02:14:34;;;;;;;25.10;14.70;;;;;;;13.15;59.28;100443.16;108035;1287;21983;-67
2023/03/22 02:17:09;;;;;;;17.90;11.90;;;;;;;13.13;59.18;100444.79;108242;1287;22011;-67
2023/03/22 02:20:03;;;;;;;16.50;11.90;;;;;;;13.11;59.25;100446.95;108102;1287;21986;-66
2023/03/22 02:22:38;;;;;;;18.80;11.80;;;;;;;13.07;59.00;100449.64;108117;1287;22021;-69
2023/03/22 02:25:16;;;;;;;20.00;11.30;;;;;;;13.08;59.09;100450.51;108005;1287;22032;-69
2023/03/22 02:27:57;;;;;;;15.50;10.40;;;;;;;13.09;59.12;100446.63;108098;1280;21987;-69
2023/03/22 02:30:25;;;;;;;;;;;;;;;13.07;59.06;100447.89;108112;1287;21967;-67
2023/03/22 02:33:02;;;;;;;20.90;10.80;;;;;;;13.05;59.02;100448.11;108060;1287;21989;-69
2023/03/22 02:35:54;;;;;;;18.90;10.90;;;;;;;13.04;59.19;100448.67;108201;1287;21998;-66
2023/03/22 02:38:44;;;;;;;18.70;11.20;;;;;;;13.01;59.18;100455.25;108201;1287;23809;-67
2023/03/22 02:41:20;;;;;;;15.70;10.10;;;;;;;13.01;59.40;100456.30;108076;1287;21992;-69
2023/03/22 02:44:09;;;;;;;20.30;12.20;;;;;;;13.01;59.52;100456.14;108049;1287;22039;-66
2023/03/22 02:46:55;;;;;;;19.50;11.20;;;;;;;13.00;59.50;100457.39;108078;1287;21985;-70
2023/03/22 02:49:54;;;;;;;23.20;12.90;;;;;;;12.99;59.66;100455.13;108132;1287;21992;-66
2023/03/22 02:52:29;;;;;;;17.00;10.90;;;;;;;12.99;59.61;100457.06;108164;1287;21989;-66
2023/03/22 02:54:57;;;;;;;20.10;11.50;;;;;;;12.97;59.62;100458.86;108173;1287;22027;-66
2023/03/22 02:57:41;;;;;;;15.00;11.10;;;;;;;12.93;59.55;100462.27;108120;1287;21992;-69
2023/03/22 03:00:11;;;;;;;18.10;11.50;;;;;;;12.91;59.57;100462.84;107979;1287;23424;-69
2023/03/22 03:02:38;;;;;;;17.90;11.50;;;;;;;12.91;59.47;100465.84;108100;1287;21983;-68
2023/03/22 03:05:05;;;;;;;18.00;11.10;;;;;;;12.91;59.53;100461.27;108086;1287;22005;-66
2023/03/22 03:07:31;;;;;;;19.10;11.80;;;;;;;12.89;59.44;100459.19;108055;1283;23736;-68
2023/03/22 03:09:57;;;;;;;18.80;11.90;;;;;;;12.90;59.75;100458.64;108057;1287;23240;-66
2023/03/22 03:12:23;;;;;;;19.10;12.00;;;;;;;12.92;59.57;100459.48;108022;1287;21995;-65
2023/03/22 03:14:49;;;;;;;21.90;12.40;;;;;;;12.94;59.64;100461.91;108051;1287;22027;-70
2023/03/22 03:17:48;;;;;;;21.10;13.30;;;;;;;12.93;59.65;100463.16;108061;1286;23660;-66
2023/03/22 03:20:20;;;;;;;17.50;11.70;;;;;;;12.90;59.45;100459.53;107979;1287;22026;-69
2023/03/22 03:23:01;;;;;;;18.20;11.50;;;;;;;12.87;59.49;100459.24;108105;1287;22461;-69
2023/03/22 03:25:44;;;;;;;16.90;10.50;;;;;;;12.86;59.34;100460.66;108192;1287;21990;-69
2023/03/22 03:28:38;;;;;;;20.00;10.60;;;;;;;12.84;59.60;100462.99;108225;1287;21988;-66
2023/03/22 03:31:19;;;;;;;17.60;11.00;;;;;;;12.84;59.64;100469.51;108117;1287;21989;-66
2023/03/22 03:33:48;;;;;;;;;;;;;;;12.86;59.56;100469.64;108021;1287;21971;-69
2023/03/22 03:36:14;;;;;;;19.10;11.20;;;;;;;12.87;59.42;100469.79;108054;1287;22763;-69
2023/03/22 03:38:42;;;;;;;16.10;10.40;;;;;;;12.86;59.37;100468.05;108023;1287;21989;-69
2023/03/22 03:41:10;;;;;;;23.80;14.20;;;;;;;12.85;59.40;100469.66;107959;1287;22449;-67
2023/03/22 03:43:36;;;;;;;19.60;13.10;;;;;;;12.84;59.43;100471.45;108124;1287;22030;-69
2023/03/22 03:46:03;;;;;;;18.30;12.50;;;;;;;12.81;59.50;100474.52;107951;1287;21987;-69
2023/03/22 03:48:31;;;;;;;16.80;10.50;;;;;;;12.81;59.45;100476.28;107667;1287;22027;-66
2023/03/22 03:50:56;;;;;;;15.20;10.30;;;;;;;12.79;59.33;100478.42;108107;1288;21992;-66
2023/03/22 03:53:24;;;;;;;15.30;10.20;;;;;;;12.79;59.43;100477.89;107985;1288;21994;-66
2023/03/22 03:55:50;;;;;;;17.60;10.90;;;;;;;12.79;59.61;100478.24;107942;1288;22001;-69
2023/03/22 03:58:16;;;;;;;16.70;10.50;;;;;;;12.78;59.28;100476.34;108120;1288;21994;-68
2023/03/22 04:00:42;;;;;;;19.60;11.20;;;;;;;12.75;59.31;100478.14;108109;1282;21995;-65
2023/03/22 04:03:09;;;;;;;19.20;11.80;;;;;;;12.73;59.40;100478.00;108099;1288;21984;-65
2023/03/22 04:05:36;;;;;;;24.70;12.60;;;;;;;12.74;59.66;100477.63;108160;1288;21984;-66
2023/03/22 04:08:02;;;;;;;20.90;12.80;;;;;;;12.75;59.84;100479.71;108169;1288;22024;-66
2023/03/22 04:10:28;;;;;;;19.50;13.00;;;;;;;12.77;59.89;100484.80;108119;1288;21990;-71
2023/03/22 04:12:54;;;;;;;19.00;12.00;;;;;;;12.78;59.88;100484.96;108118;1288;22015;-67
2023/03/22 04:15:20;;;;;;;23.70;13.30;;;;;;;12.79;59.94;100482.98;107700;1275;1002888;-66
2023/03/22 04:17:46;;;;;;;22.00;12.40;;;;;;;12.81;60.08;100481.02;108099;1288;21999;-70
2023/03/22 04:20:12;;;;;;;22.80;13.60;;;;;;;12.82;60.21;100485.91;107959;1288;21988;-69
2023/03/22 04:22:39;;;;;;;21.60;12.40;;;;;;;12.84;60.28;100489.75;108083;1286;22024;-67
2023/03/22 04:25:10;;;;;;;;;;;;;;;12.88;60.23;100496.17;108134;1288;21982;-70
2023/03/22 04:27:40;;;;;;;22.70;12.80;;;;;;;12.92;60.16;100496.30;108175;1288;22453;-70
2023/03/22 04:30:09;;;;;;;26.40;12.80;;;;;;;12.95;60.45;100500.46;108081;1288;21992;-67
2023/03/22 04:32:36;;;;;;;21.60;12.30;;;;;;;12.99;60.32;100500.92;108150;1288;24305;-68
2023/03/22 04:35:02;;;;;;;19.90;13.50;;;;;;;12.97;60.15;100505.36;108085;1288;21987;-67
2023/03/22 04:37:30;;;;;;;31.80;13.80;;;;;;;12.94;60.26;100505.07;108147;1288;22011;-68
2023/03/22 04:39:56;;;;;;;21.10;12.50;;;;;;;12.93;60.40;100505.78;108135;1288;22011;-68
2023/03/22 04:42:23;;;;;;;22.60;12.60;;;;;;;12.94;60.62;100505.58;108117;1288;21988;-67
2023/03/22 04:44:50;;;;;;;21.70;13.40;;;;;;;12.95;60.65;100506.45;108153;1288;23744;-68
2023/03/22 04:47:16;;;;;;;23.60;13.30;;;;;;;12.96;60.67;100509.26;108173;1286;21997;-68
2023/03/22 04:49:49;;;;;;;27.60;13.40;;;;;;;13.01;61.00;100509.70;108044;1287;22033;-69
2023/03/22 04:52:14;;;;;;;22.30;14.90;;;;;;;13.08;61.28;100509.00;108189;1287;23011;-68
2023/03/22 04:54:42;;;;;;;28.80;15.20;;;;;;;13.13;61.02;100508.91;108148;1286;22010;-67
2023/03/22 04:57:08;;;;;;;22.40;14.00;;;;;;;13.18;61.36;100510.38;108097;1287;21985;-68
2023/03/22 04:59:34;;;;;;;22.80;14.10;;;;;;;13.28;61.43;100513.35;108045;1283;22456;-69
2023/03/22 05:02:03;;;;;;;20.40;13.70;;;;;;;13.36;61.32;100514.94;108055;1287;24081;-67
2023/03/22 05:04:30;;;;;;;22.90;14.50;;;;;;;13.42;61.35;100516.60;108064;1287;22027;-69
2023/03/22 05:06:56;;;;;;;24.50;15.00;;;;;;;13.45;61.36;100517.96;108105;1287;21992;-69
2023/03/22 05:09:23;;;;;;;21.90;13.60;;;;;;;13.46;61.38;100520.91;108202;1287;22009;-67
2023/03/22 05:11:48;;;;;;;19.00;13.60;;;;;;;13.48;61.36;100522.80;108211;1287;21983;-67
2023/03/22 05:14:14;;;;;;;21.30;13.50;;;;;;;13.50;61.61;100523.48;108071;1287;22087;-68
2023/03/22 05:16:41;;;;;;;20.60;12.60;;;;;;;13.51;61.70;100528.05;107919;1287;21990;-69
2023/03/22 05:19:12;;;;;;;21.50;14.00;;;;;;;13.53;61.76;100528.16;108192;1287;22527;-70
2023/03/22 05:21:39;;;;;;;23.30;14.30;;;;;;;13.58;61.86;100531.08;108148;1287;21986;-68
2023/03/22 05:24:06;;;;;;;18.40;13.10;;;;;;;13.64;62.11;100531.82;108076;1287;21980;-67
2023/03/22 05:26:32;;;;;;;19.90;13.70;;;;;;;13.74;62.35;100534.06;108203;1285;21983;-69
2023/03/22 05:28:58;;;;;;;21.00;13.60;;;;;;;13.79;62.12;100539.41;108336;1287;22004;-67
2023/03/22 05:31:27;;;;;;;25.90;13.60;;;;;;;13.85;62.08;100543.16;107294;1287;1002621;-67
2023/03/22 05:34:04;;;;;;;21.70;15.20;;;;;;;13.93;62.14;100544.02;108138;1283;21973;-68
2023/03/22 05:36:35;;;;;;;25.80;16.20;;;;;;;13.99;62.27;100542.46;108123;1287;22103;-67
2023/03/22 05:39:01;;;;;;;22.00;14.50;;;;;;;14.04;62.43;100546.05;107286;1287;1002358;-67
2023/03/22 05:41:30;;;;;;;18.10;13.40;;;;;;;14.09;62.40;100551.95;107960;1287;21995;-67
2023/03/22 05:43:56;;;;;;;24.20;14.20;;;;;;;14.18;62.58;100555.77;107828;1287;22010;-68
2023/03/22 05:46:22;;;;;;;21.70;14.50;;;;;;;14.24;62.46;100555.98;108105;1287;21985;-68
2023/03/22 05:48:48;;;;;;;20.60;13.60;;;;;;;14.28;62.55;100558.37;107966;1288;21996;-65
2023/03/22 05:51:18;;;;;;;20.70;13.50;;;;;;;14.35;62.71;100556.95;108076;1288;21976;-66
2023/03/22 05:53:46;;;;;;;21.40;13.80;;;;;;;14.43;63.07;100557.28;108186;1288;21990;-66
2023/03/22 05:56:12;;;;;;;20.80;14.00;;;;;;;14.49;63.46;100558.00;108170;1280;22021;-67
2023/03/22 05:58:41;;;;;;;21.70;14.10;;;;;;;14.58;63.64;100558.84;108172;1287;21989;-67
2023/03/22 06:01:09;;;;;;;22.70;13.60;;;;;;;14.66;63.24;100555.45;108107;1288;21990;-67
2023/03/22 06:03:35;;;;;;;22.50;13.20;;;;;;;14.73;63.12;100556.89;108179;1288;21986;-68
2023/03/22 06:06:01;;;;;;;19.00;12.30;;;;;;;14.79;63.14;100557.95;108047;1288;23784;-68
2023/03/22 06:08:28;;;;;;;22.00;13.40;;;;;;;14.89;63.33;100557.34;108133;1288;21990;-68
2023/03/22 06:10:53;;;;;;;19.30;11.80;;;;;;;15.02;63.64;100558.92;108070;1288;21987;-69
2023/03/22 06:13:20;;;;;;;22.80;14.00;;;;;;;15.17;64.07;100556.39;108154;1288;22028;-67
2023/03/22 06:15:47;;;;;;;21.20;13.60;;;;;;;15.33;64.03;100557.00;107968;1275;21987;-69
2023/03/22 06:18:15;;;;;;;22.90;13.40;;;;;;;15.50;65.01;100564.98;108096;1287;21993;-69
2023/03/22 06:20:41;;;;;;;20.80;13.50;;;;;;;15.68;66.01;100562.34;108020;1288;22736;-67
2023/03/22 06:23:08;;;;;;;21.20;13.50;;;;;;;15.86;65.59;100566.58;108133;1288;21985;-69
2023/03/22 06:25:34;;;;;;;21.00;14.20;;;;;;;15.99;65.21;100566.02;108043;1288;21987;-67
2023/03/22 06:27:59;;;;;;;21.10;14.60;;;;;;;16.09;65.05;100568.17;108125;1288;21995;-67
2023/03/22 06:30:26;;;;;;;21.30;13.70;;;;;;;16.19;64.32;100571.56;108059;1288;21950;-67
2023/03/22 06:32:54;;;;;;;22.50;12.70;;;;;;;16.27;63.57;100569.17;108089;1288;21995;-68
2023/03/22 06:35:20;;;;;;;19.20;13.00;;;;;;;16.35;63.48;100568.19;108127;1288;22452;-68
2023/03/22 06:37:45;;;;;;;15.90;11.80;;;;;;;16.46;63.28;100573.52;108056;1288;22760;-68
2023/03/22 06:40:12;;;;;;;26.20;14.60;;;;;;;16.53;62.71;100570.82;108109;1288;21988;-65
2023/03/22 06:42:38;;;;;;;21.60;14.60;;;;;;;16.58;62.90;100569.90;108108;1288;22077;-68
2023/03/22 06:45:05;;;;;;;25.20;15.90;;;;;;;16.70;63.21;100571.83;108137;1288;22008;-69
2023/03/22 06:47:32;;;;;;;22.60;13.60;;;;;;;16.84;63.41;100575.22;108138;1287;21989;-68
2023/03/22 06:49:58;;;;;;;24.10;13.50;;;;;;;17.01;63.34;100580.50;108066;1287;21984;-68
2023/03/22 06:52:23;;;;;;;21.30;13.70;;;;;;;17.19;63.07;100582.52;108092;1287;21991;-68
2023/03/22 06:54:49;;;;;;;20.10;13.20;;;;;;;17.35;62.57;100585.67;108063;1287;21987;-67
2023/03/22 06:57:15;;;;;;;23.50;13.90;;;;;;;17.51;62.62;100584.16;108218;1283;21991;-68
2023/03/22 06:59:41;;;;;;;23.50;13.40;;;;;;;17.70;62.39;100584.70;108297;1287;24330;-67
2023/03/22 07:02:10;;;;;;;25.40;15.00;;;;;;;17.86;61.91;100581.23;108158;1287;22564;-69
2023/03/22 07:04:38;;;;;;;23.50;14.80;;;;;;;18.00;61.59;100582.30;108112;1287;22026;-67
2023/03/22 07:07:04;;;;;;;19.60;13.80;;;;;;;18.16;61.38;100585.77;108081;1287;22025;-69
2023/03/22 07:09:30;;;;;;;18.60;13.10;;;;;;;18.31;61.27;100589.42;108037;1282;23715;-69
2023/03/22 07:11:57;;;;;;;24.00;14.40;;;;;;;18.44;60.58;100590.30;108175;1287;21990;-68
2023/03/22 07:14:22;;;;;;;22.40;15.00;;;;;;;18.52;60.36;100584.81;108152;1287;21987;-69
2023/03/22 07:16:48;;;;;;;24.60;16.10;;;;;;;18.63;59.94;100579.39;108047;1287;22163;-67
2023/03/22 07:19:16;;;;;;;21.80;16.40;;;;;;;18.76;60.16;100582.20;108038;1287;21999;-66
2023/03/22 07:21:42;;;;;;;27.30;17.00;;;;;;;18.90;59.02;100583.55;108060;1287;22000;-69
2023/03/22 07:24:10;;;;;;;22.40;14.90;;;;;;;19.03;59.83;100580.67;108183;1287;22021;-67
2023/03/22 07:26:39;;;;;;;21.20;16.00;;;;;;;19.17;58.55;100576.17;108197;1287;21998;-67
2023/03/22 07:29:07;;;;;;;27.30;16.70;;;;;;;19.31;58.87;100571.79;108170;1286;23048;-69
2023/03/22 07:31:35;;;;;;;25.10;16.70;;;;;;;19.42;58.32;100571.65;108224;1287;21987;-69
2023/03/22 07:34:02;;;;;;;22.00;16.30;;;;;;;19.52;58.26;100572.78;108097;1287;21984;-69
2023/03/22 07:36:29;;;;;;;24.50;16.50;;;;;;;19.64;57.93;100572.25;108128;1287;21999;-68
2023/03/22 07:38:57;;;;;;;23.70;17.20;;;;;;;19.79;58.16;100572.95;108116;1287;21997;-69
2023/03/22 07:41:23;;;;;;;24.70;16.90;;;;;;;19.92;57.40;100571.46;108104;1287;21991;-69
2023/03/22 07:43:49;;;;;;;24.30;17.20;;;;;;;20.03;56.93;100572.70;108092;1287;21994;-68
2023/03/22 07:46:16;;;;;;;22.40;16.60;;;;;;;20.21;57.09;100572.74;108221;1287;21987;-68
2023/03/22 07:48:53;;;;;;;23.50;17.00;;;;;;;20.30;55.81;100573.89;108076;1287;21998;-67
2023/03/22 07:51:19;;;;;;;22.00;16.90;;;;;;;20.43;57.30;100574.53;107776;1287;22000;-68
2023/03/22 07:53:44;;;;;;;26.80;18.60;;;;;;;20.61;57.29;100575.59;108180;1287;21995;-69
2023/03/22 07:56:18;;;;;;;24.30;18.20;;;;;;;20.85;57.51;100575.98;108251;1287;21982;-68
2023/03/22 07:58:43;;;;;;;25.30;16.90;;;;;;;21.12;56.99;100576.19;108322;1287;22745;-69
2023/03/22 08:01:09;;;;;;;19.20;15.00;;;;;;;21.29;56.63;100578.99;108161;1287;22004;-67
2023/03/22 08:03:38;;;;;;;24.00;15.40;;;;;;;21.41;55.68;100578.18;108199;1287;21983;-67
2023/03/22 08:06:06;;;;;;;20.50;15.40;;;;;;;21.52;54.48;100579.74;108125;1287;22022;-68
2023/03/22 08:08:35;;;;;;;24.10;17.30;;;;;;;21.62;54.54;100580.27;108097;1287;21985;-67
2023/03/22 08:11:02;;;;;;;24.10;16.10;;;;;;;21.71;53.40;100578.20;108051;1287;22000;-67
2023/03/22 08:13:29;;;;;;;21.10;16.10;;;;;;;21.81;53.89;100574.75;108137;1287;22189;-66
2023/03/22 08:15:57;;;;;;;21.40;16.30;;;;;;;21.90;53.51;100576.23;108121;1287;21996;-67
2023/03/22 08:18:26;;;;;;;29.10;15.80;;;;;;;21.99;53.93;100575.90;108128;1287;22024;-67
2023/03/22 08:20:54;;;;;;;23.30;17.10;;;;;;;22.20;53.64;100577.41;108150;1287;22941;-67
2023/03/22 08:23:19;;;;;;;22.50;15.90;;;;;;;22.43;52.98;100578.05;108170;1287;22048;-67
2023/03/22 08:25:45;;;;;;;21.90;15.90;;;;;;;22.51;51.23;100574.40;108090;1287;22007;-68
2023/03/22 08:28:12;;;;;;;21.50;15.90;;;;;;;22.57;51.42;100576.15;108223;1287;22008;-67
2023/03/22 08:30:38;;;;;;;22.90;16.20;;;;;;;22.71;51.45;100574.23;108158;1287;21994;-67
2023/03/22 08:33:05;;;;;;;24.00;16.40;;;;;;;22.83;51.31;100575.88;108384;1283;21985;-68
2023/03/22 08:35:31;;;;;;;23.20;15.50;;;;;;;22.91;51.19;100576.12;108238;1287;21991;-67
2023/03/22 08:37:57;;;;;;;27.80;17.70;;;;;;;22.88;48.93;100577.53;108297;1287;21989;-68
2023/03/22 08:40:25;;;;;;;22.00;15.70;;;;;;;22.80;49.81;100581.80;108144;1287;23075;-67
2023/03/22 08:42:51;;;;;;;20.20;16.00;;;;;;;22.87;50.50;100582.98;108086;1287;21995;-68
2023/03/22 08:45:17;;;;;;;20.70;15.20;;;;;;;23.04;50.96;100579.81;108091;1283;23455;-68
2023/03/22 08:47:44;;;;;;;23.10;15.50;;;;;;;23.34;51.43;100579.05;107938;1288;21988;-69
2023/03/22 08:50:10;;;;;;;21.70;15.80;;;;;;;23.46;47.76;100571.30;108096;1287;23736;-68
2023/03/22 08:52:36;;;;;;;20.30;15.90;;;;;;;23.43;47.70;100572.05;108030;1287;21990;-68
2023/03/22 08:55:03;;;;;;;21.70;15.50;;;;;;;23.43;48.53;100572.03;108166;1283;22130;-68
2023/03/22 08:57:33;;;;;;;22.90;15.80;;;;;;;23.50;48.50;100571.77;108308;1287;22006;-68
2023/03/22 08:59:59;;;;;;;22.70;16.60;;;;;;;23.60;47.51;100569.75;108047;1288;21984;-69
2023/03/22 09:02:25;;;;;;;21.30;16.40;;;;;;;23.73;46.92;100570.00;108094;1280;22000;-67
2023/03/22 09:04:51;;;;;;;25.10;17.10;;;;;;;23.71;45.17;100574.54;108078;1288;21985;-67
2023/03/22 09:07:19;;;;;;;18.90;15.20;;;;;;;23.73;46.61;100572.66;108060;1288;21997;-67
2023/03/22 09:09:46;;;;;;;22.40;14.70;;;;;;;23.94;48.36;100568.27;108124;1287;21984;-68
2023/03/22 09:12:12;;;;;;;20.40;14.60;;;;;;;24.33;48.24;100566.27;108086;1287;21990;-68
2023/03/22 09:14:38;;;;;;;22.40;15.60;;;;;;;24.52;47.38;100560.52;108069;1288;22002;-69
2023/03/22 09:17:04;;;;;;;20.60;16.80;;;;;;;24.65;46.24;100557.45;108290;1288;21983;-68
2023/03/22 09:19:30;;;;;;;18.80;14.10;;;;;;;24.73;45.12;100556.23;108078;1288;21985;-66
2023/03/22 09:21:56;;;;;;;19.90;15.30;;;;;;;24.83;45.86;100554.85;108147;1288;21988;-69
2023/03/22 09:24:22;;;;;;;20.90;15.50;;;;;;;24.84;44.91;100559.10;108164;1287;21973;-69
2023/03/22 09:26:48;;;;;;;21.90;14.10;;;;;;;24.85;45.74;100559.38;108072;1287;21987;-67
2023/03/22 09:29:14;;;;;;;22.30;15.10;;;;;;;24.92;45.56;100557.38;108106;1288;21992;-68
2023/03/22 09:31:40;;;;;;;19.60;15.40;;;;;;;25.05;45.82;100556.19;108101;1288;21990;-68
2023/03/22 09:34:06;;;;;;;21.80;16.20;;;;;;;25.15;44.39;100553.70;108076;1288;22021;-68
2023/03/22 09:36:33;;;;;;;18.80;13.90;;;;;;;25.15;44.21;100556.04;108163;1288;21987;-68
2023/03/22 09:38:58;;;;;;;21.80;15.60;;;;;;;25.24;44.17;100554.14;108082;1287;21993;-68
2023/03/22 09:41:36;;;;;;;23.00;15.00;;;;;;;25.29;41.91;100551.94;108052;1287;21984;-68
2023/03/22 09:44:07;;;;;;;19.50;15.20;;;;;;;25.29;42.55;100554.14;108143;1286;21997;-67
2023/03/22 09:46:36;;;;;;;20.40;15.30;;;;;;;25.20;41.44;100552.96;108160;1287;21988;-67
2023/03/22 09:49:06;;;;;;;20.70;15.10;;;;;;;25.18;43.28;100546.46;108133;1287;22167;-68
2023/03/22 09:51:43;;;;;;;21.20;16.30;;;;;;;25.30;43.00;100544.73;108444;1287;22560;-67
2023/03/22 09:54:31;;;;;;;31.10;18.40;;;;;;;25.44;41.58;100543.04;108274;1287;21992;-68
2023/03/22 09:57:07;;;;;;;23.30;16.30;;;;;;;25.50;41.72;100541.71;108136;1287;22102;-68
2023/03/22 09:59:35;;;;;;;20.10;15.00;;;;;;;25.55;42.20;100538.63;108005;1287;22918;-68
2023/03/22 10:02:07;;;;;;;20.70;14.20;;;;;;;25.76;43.48;100533.36;108137;1287;21983;-69
2023/03/22 10:04:45;;;;;;;18.80;14.20;;;;;;;26.12;43.57;100533.59;108998;1287;22358;-68
2023/03/22 10:07:33;;;;;;;17.80;14.40;;;;;;;26.51;43.85;100528.84;108183;1287;22079;-68
2023/03/22 10:10:08;;;;;;;20.90;14.30;;;;;;;26.96;43.94;100524.09;108024;1287;21993;-68
2023/03/22 10:12:45;;;;;;;17.90;14.10;;;;;;;27.37;43.65;100520.17;108155;1287;21999;-68
2023/03/22 10:15:17;;;;;;;17.70;13.80;;;;;;;27.58;43.06;100522.09;108167;1287;21990;-68
2023/03/22 10:17:46;;;;;;;19.80;13.90;;;;;;;27.64;42.06;100518.15;108825;1287;21822;-68
2023/03/22 10:20:22;;;;;;;21.40;15.10;;;;;;;27.62;42.13;100521.38;108113;1287;23074;-69
2023/03/22 10:22:49;;;;;;;18.70;14.40;;;;;;;27.66;41.59;100518.77;108154;1287;21990;-68
2023/03/22 10:25:18;;;;;;;18.80;14.60;;;;;;;27.50;39.28;100519.98;108048;1287;21996;-68
2023/03/22 10:27:45;;;;;;;17.80;13.50;;;;;;;27.26;39.85;100518.16;108083;1287;23034;-68
2023/03/22 10:30:19;;;;;;;15.10;13.10;;;;;;;27.05;39.18;100521.97;108153;1287;22462;-69
2023/03/22 10:33:01;;;;;;;21.40;15.10;;;;;;;26.91;39.53;100522.55;108162;1285;23651;-68
2023/03/22 10:35:28;;;;;;;18.50;13.60;;;;;;;26.91;40.46;100525.61;108194;1287;22011;-68
2023/03/22 10:37:54;;;;;;;18.90;13.30;;;;;;;26.99;41.13;100520.08;108291;1287;21992;-68
2023/03/22 10:40:26;;;;;;;17.30;12.50;;;;;;;27.16;41.58;100515.73;108051;1287;22913;-68
2023/03/22 10:42:54;;;;;;;17.30;13.00;;;;;;;27.35;41.23;100512.40;108184;1287;22015;-68
2023/03/22 10:45:20;;;;;;;18.90;13.60;;;;;;;27.50;41.29;100513.04;108080;1287;21975;-68
2023/03/22 10:47:52;;;;;;;16.50;13.70;;;;;;;27.52;40.29;100508.54;108007;1287;22454;-68
2023/03/22 10:50:27;;;;;;;17.30;13.10;;;;;;;27.46;39.66;100504.31;108213;1287;21998;-68
2023/03/22 10:53:02;;;;;;;21.40;16.30;;;;;;;27.39;39.38;100505.96;108032;1287;23622;-68
2023/03/22 10:55:29;;;;;;;15.10;13.50;;;;;;;27.32;39.20;100501.27;108147;1287;21996;-68
2023/03/22 10:58:18;;;;;;;16.80;12.70;;;;;;;27.21;39.50;100500.72;108157;1287;21985;-69
2023/03/22 11:00:47;;;;;;;17.60;13.00;;;;;;;27.09;38.63;100502.38;108147;1287;21991;-68
2023/03/22 11:03:42;;;;;;;20.40;14.50;;;;;;;26.92;38.51;100499.06;108246;1287;22075;-68
2023/03/22 11:06:22;;;;;;;20.70;15.20;;;;;;;26.72;37.72;100498.23;108110;1288;21986;-68
2023/03/22 11:08:52;;;;;;;19.20;15.30;;;;;;;26.58;38.42;100496.46;108206;1287;21987;-68
2023/03/22 11:11:29;;;;;;;18.70;14.80;;;;;;;26.63;39.53;100490.66;108157;1287;21987;-68